Terminal Aerodrome Forecast
Issued by NWS

Home | Current Version | Previous Version | Text Only | Print | Product List | Glossary Off
Versions: 1 2 3 4 5 6 7 8 9 10 11 12 13 14 15 16 17 18 19 20 21 22 23 24 25 26 27 28 29 30 31 32 33 34 35 36 37 38 39 40

000
FTUS43 KPAH 221127
TAFOWB
TAF
KOWB 221127Z 2212/2312 00000KT P6SM SCT040
      TEMPO 2213/2215 34015G30KT 3SM TSRA BR BKN025CB
     FM221500 24003KT P6SM SCT050 BKN250=

USA.gov is the U.S. government's official web portal to all federal, state and local government web resources and services.